sensor_id;sensor_type;location;lat;lon;timestamp;P1;P2;P0
57563;PMS7003;43400;45.926;6.724;2023-02-28T00:00:24;40.00;40.00;25.60
57563;PMS7003;43400;45.926;6.724;2023-02-28T00:02:57;38.50;37.25;23.00
57563;PMS7003;43400;45.926;6.724;2023-02-28T00:05:32;38.75;36.00;25.50
57563;PMS7003;43400;45.926;6.724;2023-02-28T00:08:04;38.25;34.25;24.75
57563;PMS7003;43400;45.926;6.724;2023-02-28T00:10:37;38.50;37.25;24.75
57563;PMS7003;43400;45.926;6.724;2023-02-28T00:13:10;34.50;32.50;24.00
57563;PMS7003;43400;45.926;6.724;2023-02-28T00:15:42;38.00;37.00;24.00
57563;PMS7003;43400;45.926;6.724;2023-02-28T00:18:14;44.50;40.00;24.00
57563;PMS7003;43400;45.926;6.724;2023-02-28T00:20:46;44.20;40.40;27.00
57563;PMS7003;43400;45.926;6.724;2023-02-28T00:23:19;40.00;40.00;24.00
57563;PMS7003;43400;45.926;6.724;2023-02-28T00:25:51;36.75;34.75;23.00
57563;PMS7003;43400;45.926;6.724;2023-02-28T00:28:24;39.75;37.00;27.25
57563;PMS7003;43400;45.926;6.724;2023-02-28T00:30:56;39.00;38.25;25.00
57563;PMS7003;43400;45.926;6.724;2023-02-28T00:33:28;40.00;38.75;26.00
57563;PMS7003;43400;45.926;6.724;2023-02-28T00:36:05;37.50;34.50;22.00
57563;PMS7003;43400;45.926;6.724;2023-02-28T00:38:39;39.60;34.80;23.60
57563;PMS7003;43400;45.926;6.724;2023-02-28T00:41:12;42.00;41.60;23.60
57563;PMS7003;43400;45.926;6.724;2023-02-28T00:43:44;34.00;34.00;22.75
57563;PMS7003;43400;45.926;6.724;2023-02-28T00:46:16;39.80;36.40;24.20
57563;PMS7003;43400;45.926;6.724;2023-02-28T00:48:49;40.00;39.00;24.00
57563;PMS7003;43400;45.926;6.724;2023-02-28T00:51:20;35.75;32.00;23.00
57563;PMS7003;43400;45.926;6.724;2023-02-28T00:53:53;39.00;32.75;21.00
57563;PMS7003;43400;45.926;6.724;2023-02-28T00:56:25;41.75;39.25;22.50
57563;PMS7003;43400;45.926;6.724;2023-02-28T00:58:57;38.25;36.50;24.00
57563;PMS7003;43400;45.926;6.724;2023-02-28T01:01:29;40.00;39.60;24.00
57563;PMS7003;43400;45.926;6.724;2023-02-28T01:04:01;37.00;35.25;23.00
57563;PMS7003;43400;45.926;6.724;2023-02-28T01:06:33;37.50;36.50;24.00
57563;PMS7003;43400;45.926;6.724;2023-02-28T01:09:05;41.75;40.25;24.75
57563;PMS7003;43400;45.926;6.724;2023-02-28T01:11:38;41.25;40.00;24.50
57563;PMS7003;43400;45.926;6.724;2023-02-28T01:14:12;37.80;34.40;24.00
57563;PMS7003;43400;45.926;6.724;2023-02-28T01:16:45;34.40;32.80;21.20
57563;PMS7003;43400;45.926;6.724;2023-02-28T01:19:18;31.00;31.00;22.00
57563;PMS7003;43400;45.926;6.724;2023-02-28T01:21:50;32.50;31.00;21.00
57563;PMS7003;43400;45.926;6.724;2023-02-28T01:24:21;32.00;31.00;19.00
57563;PMS7003;43400;45.926;6.724;2023-02-28T01:26:58;36.00;34.50;22.00
57563;PMS7003;43400;45.926;6.724;2023-02-28T01:29:30;33.00;30.60;20.60
57563;PMS7003;43400;45.926;6.724;2023-02-28T01:32:01;38.00;37.00;24.00
57563;PMS7003;43400;45.926;6.724;2023-02-28T01:34:34;49.00;43.40;24.00
57563;PMS7003;43400;45.926;6.724;2023-02-28T01:37:06;40.20;35.00;23.20
57563;PMS7003;43400;45.926;6.724;2023-02-28T01:39:38;39.00;34.25;22.00
57563;PMS7003;43400;45.926;6.724;2023-02-28T01:42:11;35.00;34.75;23.50
57563;PMS7003;43400;45.926;6.724;2023-02-28T01:47:38;42.60;40.00;25.40
57563;PMS7003;43400;45.926;6.724;2023-02-28T01:50:14;36.33;34.67;24.33
57563;PMS7003;43400;45.926;6.724;2023-02-28T01:52:50;37.80;35.40;23.20
57563;PMS7003;43400;45.926;6.724;2023-02-28T01:55:25;30.00;28.25;21.50
57563;PMS7003;43400;45.926;6.724;2023-02-28T01:58:00;41.00;39.25;24.00
57563;PMS7003;43400;45.926;6.724;2023-02-28T02:00:35;36.00;35.00;22.00
57563;PMS7003;43400;45.926;6.724;2023-02-28T02:03:08;33.20;32.00;23.60
57563;PMS7003;43400;45.926;6.724;2023-02-28T02:05:41;38.00;35.50;22.00
57563;PMS7003;43400;45.926;6.724;2023-02-28T02:08:15;34.25;33.25;19.00
57563;PMS7003;43400;45.926;6.724;2023-02-28T02:10:57;38.20;35.80;21.80
57563;PMS7003;43400;45.926;6.724;2023-02-28T02:30:56;40.60;37.80;24.00
57563;PMS7003;43400;45.926;6.724;2023-02-28T02:36:33;41.00;38.25;23.00
57563;PMS7003;43400;45.926;6.724;2023-02-28T02:39:30;33.25;33.00;22.00
57563;PMS7003;43400;45.926;6.724;2023-02-28T02:42:14;39.00;35.40;24.60
57563;PMS7003;43400;45.926;6.724;2023-02-28T02:44:50;46.25;42.00;26.00
57563;PMS7003;43400;45.926;6.724;2023-02-28T02:47:29;35.00;33.80;23.80
57563;PMS7003;43400;45.926;6.724;2023-02-28T02:50:04;39.25;37.00;24.50
57563;PMS7003;43400;45.926;6.724;2023-02-28T02:52:41;40.00;37.75;25.25
57563;PMS7003;43400;45.926;6.724;2023-02-28T02:55:16;41.20;35.00;25.00
57563;PMS7003;43400;45.926;6.724;2023-02-28T02:57:58;42.20;41.40;25.00
57563;PMS7003;43400;45.926;6.724;2023-02-28T03:00:38;47.50;41.75;26.50
57563;PMS7003;43400;45.926;6.724;2023-02-28T03:03:20;40.00;40.00;24.50
57563;PMS7003;43400;45.926;6.724;2023-02-28T03:05:53;39.25;36.50;26.25
57563;PMS7003;43400;45.926;6.724;2023-02-28T03:08:25;35.00;35.00;25.00
57563;PMS7003;43400;45.926;6.724;2023-02-28T03:11:02;39.00;36.75;24.25
57563;PMS7003;43400;45.926;6.724;2023-02-28T03:27:41;42.75;40.25;28.00
57563;PMS7003;43400;45.926;6.724;2023-02-28T03:30:54;48.67;41.67;28.00
57563;PMS7003;43400;45.926;6.724;2023-02-28T03:33:53;45.40;41.80;28.00
57563;PMS7003;43400;45.926;6.724;2023-02-28T03:36:54;44.50;42.00;28.00
57563;PMS7003;43400;45.926;6.724;2023-02-28T03:39:41;48.67;44.00;28.67
57563;PMS7003;43400;45.926;6.724;2023-02-28T03:42:23;45.60;41.60;28.00
57563;PMS7003;43400;45.926;6.724;2023-02-28T03:44:58;43.40;38.60;26.00
57563;PMS7003;43400;45.926;6.724;2023-02-28T03:50:11;49.50;42.50;27.00
57563;PMS7003;43400;45.926;6.724;2023-02-28T03:52:53;50.75;46.00;28.25
57563;PMS7003;43400;45.926;6.724;2023-02-28T03:55:57;41.50;41.50;28.00
57563;PMS7003;43400;45.926;6.724;2023-02-28T04:01:43;41.75;41.25;28.00
57563;PMS7003;43400;45.926;6.724;2023-02-28T04:04:18;45.60;42.60;28.00
57563;PMS7003;43400;45.926;6.724;2023-02-28T04:06:50;44.00;41.80;28.00
57563;PMS7003;43400;45.926;6.724;2023-02-28T04:09:23;55.00;46.00;29.50
57563;PMS7003;43400;45.926;6.724;2023-02-28T04:11:54;51.00;45.00;28.80
57563;PMS7003;43400;45.926;6.724;2023-02-28T04:14:26;58.00;49.50;31.25
57563;PMS7003;43400;45.926;6.724;2023-02-28T04:16:58;56.00;49.00;31.00
57563;PMS7003;43400;45.926;6.724;2023-02-28T04:19:29;54.50;47.75;31.00
57563;PMS7003;43400;45.926;6.724;2023-02-28T04:22:01;50.50;45.00;29.00
57563;PMS7003;43400;45.926;6.724;2023-02-28T04:24:32;60.20;48.80;31.60
57563;PMS7003;43400;45.926;6.724;2023-02-28T04:27:04;59.25;47.00;31.00
57563;PMS7003;43400;45.926;6.724;2023-02-28T04:29:35;55.50;47.25;30.00
57563;PMS7003;43400;45.926;6.724;2023-02-28T04:32:07;46.20;43.00;30.80
57563;PMS7003;43400;45.926;6.724;2023-02-28T04:34:39;54.00;48.75;31.25
57563;PMS7003;43400;45.926;6.724;2023-02-28T04:37:11;51.25;44.00;28.00
57563;PMS7003;43400;45.926;6.724;2023-02-28T04:39:42;53.60;44.60;29.40
57563;PMS7003;43400;45.926;6.724;2023-02-28T04:42:14;47.80;44.60;29.80
57563;PMS7003;43400;45.926;6.724;2023-02-28T04:44:46;44.20;42.00;28.00
57563;PMS7003;43400;45.926;6.724;2023-02-28T04:47:17;42.75;41.75;28.25
57563;PMS7003;43400;45.926;6.724;2023-02-28T04:49:49;49.75;44.25;28.00
57563;PMS7003;43400;45.926;6.724;2023-02-28T04:52:21;45.80;43.20;28.00
57563;PMS7003;43400;45.926;6.724;2023-02-28T04:54:52;45.40;41.00;28.00
57563;PMS7003;43400;45.926;6.724;2023-02-28T04:57:24;44.20;39.00;28.00
57563;PMS7003;43400;45.926;6.724;2023-02-28T04:59:56;38.00;35.80;23.20
57563;PMS7003;43400;45.926;6.724;2023-02-28T05:02:27;45.60;42.60;27.20
57563;PMS7003;43400;45.926;6.724;2023-02-28T05:04:59;40.25;37.75;23.75
57563;PMS7003;43400;45.926;6.724;2023-02-28T05:07:31;48.00;43.50;28.00
57563;PMS7003;43400;45.926;6.724;2023-02-28T05:10:02;48.00;44.80;28.00
57563;PMS7003;43400;45.926;6.724;2023-02-28T05:12:34;42.00;41.00;25.50
57563;PMS7003;43400;45.926;6.724;2023-02-28T05:15:06;43.00;40.20;28.00
57563;PMS7003;43400;45.926;6.724;2023-02-28T05:17:39;53.00;45.25;29.00
57563;PMS7003;43400;45.926;6.724;2023-02-28T05:20:11;40.50;36.00;24.75
57563;PMS7003;43400;45.926;6.724;2023-02-28T05:22:43;48.20;43.40;28.00
57563;PMS7003;43400;45.926;6.724;2023-02-28T05:25:17;43.00;42.25;28.50
57563;PMS7003;43400;45.926;6.724;2023-02-28T05:27:50;46.50;44.75;28.00
57563;PMS7003;43400;45.926;6.724;2023-02-28T05:30:21;54.25;46.50;30.00
57563;PMS7003;43400;45.926;6.724;2023-02-28T05:32:53;47.50;43.25;28.00
57563;PMS7003;43400;45.926;6.724;2023-02-28T05:35:25;47.00;44.25;28.00
57563;PMS7003;43400;45.926;6.724;2023-02-28T05:37:57;53.75;45.25;27.75
57563;PMS7003;43400;45.926;6.724;2023-02-28T05:40:28;53.75;46.25;28.00
57563;PMS7003;43400;45.926;6.724;2023-02-28T05:43:00;54.75;44.75;30.00
57563;PMS7003;43400;45.926;6.724;2023-02-28T05:45:32;52.80;47.20;29.00
57563;PMS7003;43400;45.926;6.724;2023-02-28T05:48:03;45.75;42.50;28.00
57563;PMS7003;43400;45.926;6.724;2023-02-28T05:50:35;45.50;42.75;28.00
57563;PMS7003;43400;45.926;6.724;2023-02-28T05:53:06;48.60;43.40;28.20
57563;PMS7003;43400;45.926;6.724;2023-02-28T05:55:38;49.50;45.00;28.00
57563;PMS7003;43400;45.926;6.724;2023-02-28T05:58:10;48.25;44.75;28.00
57563;PMS7003;43400;45.926;6.724;2023-02-28T06:00:42;48.80;42.80;28.80
57563;PMS7003;43400;45.926;6.724;2023-02-28T06:03:13;45.25;42.00;27.50
57563;PMS7003;43400;45.926;6.724;2023-02-28T06:05:45;47.00;42.75;31.00
57563;PMS7003;43400;45.926;6.724;2023-02-28T06:08:17;48.25;45.00;28.00
57563;PMS7003;43400;45.926;6.724;2023-02-28T06:10:48;47.33;44.00;28.00
57563;PMS7003;43400;45.926;6.724;2023-02-28T06:13:20;51.75;46.00;29.25
57563;PMS7003;43400;45.926;6.724;2023-02-28T06:15:52;48.00;42.80;28.00
57563;PMS7003;43400;45.926;6.724;2023-02-28T06:18:23;39.75;38.25;25.25
57563;PMS7003;43400;45.926;6.724;2023-02-28T06:20:55;40.25;37.50;24.00
57563;PMS7003;43400;45.926;6.724;2023-02-28T06:23:27;37.60;36.40;25.00
57563;PMS7003;43400;45.926;6.724;2023-02-28T06:25:59;46.00;41.50;28.00
57563;PMS7003;43400;45.926;6.724;2023-02-28T06:28:30;46.25;43.75;25.50
57563;PMS7003;43400;45.926;6.724;2023-02-28T06:31:09;41.60;41.20;29.00
57563;PMS7003;43400;45.926;6.724;2023-02-28T06:33:43;44.75;42.00;28.00
57563;PMS7003;43400;45.926;6.724;2023-02-28T06:36:16;50.60;42.40;27.20
57563;PMS7003;43400;45.926;6.724;2023-02-28T06:38:47;53.20;45.00;28.00
57563;PMS7003;43400;45.926;6.724;2023-02-28T06:41:19;44.60;42.00;28.60
57563;PMS7003;43400;45.926;6.724;2023-02-28T06:43:51;35.40;32.40;24.00
57563;PMS7003;43400;45.926;6.724;2023-02-28T06:46:23;44.00;41.25;27.50
57563;PMS7003;43400;45.926;6.724;2023-02-28T06:48:55;40.75;36.50;27.00
57563;PMS7003;43400;45.926;6.724;2023-02-28T06:51:26;44.00;42.00;28.00
57563;PMS7003;43400;45.926;6.724;2023-02-28T06:53:58;45.00;42.50;27.75
57563;PMS7003;43400;45.926;6.724;2023-02-28T06:56:30;52.20;46.40;28.60
57563;PMS7003;43400;45.926;6.724;2023-02-28T06:59:03;41.80;41.20;28.00
57563;PMS7003;43400;45.926;6.724;2023-02-28T07:01:35;66.25;51.50;31.00
57563;PMS7003;43400;45.926;6.724;2023-02-28T07:04:07;44.33;42.00;25.00
57563;PMS7003;43400;45.926;6.724;2023-02-28T07:06:39;39.50;37.75;24.75
57563;PMS7003;43400;45.926;6.724;2023-02-28T07:09:10;35.00;32.00;24.00
57563;PMS7003;43400;45.926;6.724;2023-02-28T07:11:42;45.00;42.00;26.00
57563;PMS7003;43400;45.926;6.724;2023-02-28T07:14:14;36.00;34.80;25.20
57563;PMS7003;43400;45.926;6.724;2023-02-28T07:16:45;43.00;40.25;25.75
57563;PMS7003;43400;45.926;6.724;2023-02-28T07:19:17;41.20;39.60;25.80
57563;PMS7003;43400;45.926;6.724;2023-02-28T07:21:48;49.20;43.40;25.00
57563;PMS7003;43400;45.926;6.724;2023-02-28T07:24:20;49.80;42.20;26.80
57563;PMS7003;43400;45.926;6.724;2023-02-28T07:26:52;48.60;44.40;28.00
57563;PMS7003;43400;45.926;6.724;2023-02-28T07:29:24;51.50;47.25;29.75
57563;PMS7003;43400;45.926;6.724;2023-02-28T07:31:55;61.00;50.00;30.00
57563;PMS7003;43400;45.926;6.724;2023-02-28T07:34:27;46.25;42.25;26.50
57563;PMS7003;43400;45.926;6.724;2023-02-28T07:36:59;44.00;41.50;25.75
57563;PMS7003;43400;45.926;6.724;2023-02-28T07:39:30;46.25;39.00;24.00
57563;PMS7003;43400;45.926;6.724;2023-02-28T07:42:05;42.25;41.25;27.25
57563;PMS7003;43400;45.926;6.724;2023-02-28T07:44:37;51.75;46.25;29.00
57563;PMS7003;43400;45.926;6.724;2023-02-28T07:47:10;62.40;49.80;30.00
57563;PMS7003;43400;45.926;6.724;2023-02-28T07:49:41;58.33;47.00;30.00
57563;PMS7003;43400;45.926;6.724;2023-02-28T07:52:13;49.80;44.00;28.40
57563;PMS7003;43400;45.926;6.724;2023-02-28T07:54:44;50.75;44.50;29.25
57563;PMS7003;43400;45.926;6.724;2023-02-28T07:57:16;48.20;44.00;28.00
57563;PMS7003;43400;45.926;6.724;2023-02-28T07:59:48;49.75;44.25;28.00
57563;PMS7003;43400;45.926;6.724;2023-02-28T08:02:20;45.75;41.00;28.00
57563;PMS7003;43400;45.926;6.724;2023-02-28T08:04:51;43.60;41.20;28.00
57563;PMS7003;43400;45.926;6.724;2023-02-28T08:07:23;66.00;55.25;34.75
57563;PMS7003;43400;45.926;6.724;2023-02-28T08:09:54;38.00;38.00;25.50
57563;PMS7003;43400;45.926;6.724;2023-02-28T08:12:26;51.75;45.50;29.00
57563;PMS7003;43400;45.926;6.724;2023-02-28T08:14:57;45.40;40.80;26.00
57563;PMS7003;43400;45.926;6.724;2023-02-28T08:17:29;45.00;42.25;23.00
57563;PMS7003;43400;45.926;6.724;2023-02-28T08:20:00;45.20;41.00;27.00
57563;PMS7003;43400;45.926;6.724;2023-02-28T08:22:32;46.80;41.00;25.00
57563;PMS7003;43400;45.926;6.724;2023-02-28T08:25:04;41.40;40.60;26.00
57563;PMS7003;43400;45.926;6.724;2023-02-28T08:27:36;47.00;44.00;27.00
57563;PMS7003;43400;45.926;6.724;2023-02-28T08:30:09;43.60;40.40;23.40
57563;PMS7003;43400;45.926;6.724;2023-02-28T08:32:42;44.25;40.00;24.50
57563;PMS7003;43400;45.926;6.724;2023-02-28T08:35:14;52.80;44.80;26.80
57563;PMS7003;43400;45.926;6.724;2023-02-28T08:37:49;45.25;41.00;27.00
57563;PMS7003;43400;45.926;6.724;2023-02-28T08:40:21;48.67;45.33;26.67
57563;PMS7003;43400;45.926;6.724;2023-02-28T08:42:52;48.75;42.25;27.00
57563;PMS7003;43400;45.926;6.724;2023-02-28T08:45:24;41.00;40.75;27.50
57563;PMS7003;43400;45.926;6.724;2023-02-28T08:47:56;47.80;41.00;24.40
57563;PMS7003;43400;45.926;6.724;2023-02-28T08:50:28;43.60;42.40;27.00
57563;PMS7003;43400;45.926;6.724;2023-02-28T08:52:59;47.00;42.60;27.00
57563;PMS7003;43400;45.926;6.724;2023-02-28T08:55:31;40.75;40.75;26.00
57563;PMS7003;43400;45.926;6.724;2023-02-28T08:58:02;45.00;42.40;26.00
57563;PMS7003;43400;45.926;6.724;2023-02-28T09:00:34;48.75;44.25;27.25
57563;PMS7003;43400;45.926;6.724;2023-02-28T09:03:06;52.25;41.75;27.00
57563;PMS7003;43400;45.926;6.724;2023-02-28T09:05:37;50.75;43.00;27.00
57563;PMS7003;43400;45.926;6.724;2023-02-28T09:08:09;53.20;47.80;27.00
57563;PMS7003;43400;45.926;6.724;2023-02-28T09:10:40;46.20;42.60;27.00
57563;PMS7003;43400;45.926;6.724;2023-02-28T09:13:12;47.50;43.50;27.25
57563;PMS7003;43400;45.926;6.724;2023-02-28T09:15:44;48.50;42.25;26.50
57563;PMS7003;43400;45.926;6.724;2023-02-28T09:18:16;44.60;41.60;28.00
57563;PMS7003;43400;45.926;6.724;2023-02-28T09:20:47;46.60;41.20;26.00
57563;PMS7003;43400;45.926;6.724;2023-02-28T09:23:19;46.60;41.00;27.00
57563;PMS7003;43400;45.926;6.724;2023-02-28T09:25:52;50.25;43.50;27.00
57563;PMS7003;43400;45.926;6.724;2023-02-28T09:28:26;45.25;42.75;27.00
57563;PMS7003;43400;45.926;6.724;2023-02-28T09:30:57;46.60;42.60;30.00
57563;PMS7003;43400;45.926;6.724;2023-02-28T09:33:29;46.00;43.00;28.25
57563;PMS7003;43400;45.926;6.724;2023-02-28T09:36:02;50.25;43.25;27.00
57563;PMS7003;43400;45.926;6.724;2023-02-28T09:38:34;40.67;37.33;24.67
57563;PMS7003;43400;45.926;6.724;2023-02-28T09:41:40;46.00;43.00;27.00
57563;PMS7003;43400;45.926;6.724;2023-02-28T09:44:12;44.20;40.00;26.40
57563;PMS7003;43400;45.926;6.724;2023-02-28T09:46:57;41.40;37.80;24.00
57563;PMS7003;43400;45.926;6.724;2023-02-28T09:49:34;49.50;42.00;25.00
57563;PMS7003;43400;45.926;6.724;2023-02-28T09:52:16;46.00;41.75;26.00
57563;PMS7003;43400;45.926;6.724;2023-02-28T09:54:55;47.00;41.25;25.00
57563;PMS7003;43400;45.926;6.724;2023-02-28T09:57:32;41.75;40.00;22.50
57563;PMS7003;43400;45.926;6.724;2023-02-28T10:00:16;39.00;37.80;25.20
57563;PMS7003;43400;45.926;6.724;2023-02-28T10:05:25;50.50;43.00;25.75
57563;PMS7003;43400;45.926;6.724;2023-02-28T10:10:40;38.50;34.75;24.75
57563;PMS7003;43400;45.926;6.724;2023-02-28T10:15:57;39.00;33.60;22.00
57563;PMS7003;43400;45.926;6.724;2023-02-28T10:18:41;38.75;36.00;26.00
57563;PMS7003;43400;45.926;6.724;2023-02-28T10:21:23;36.60;32.00;21.60
57563;PMS7003;43400;45.926;6.724;2023-02-28T10:24:05;39.60;39.20;23.20
57563;PMS7003;43400;45.926;6.724;2023-02-28T10:26:56;43.33;39.67;26.00
57563;PMS7003;43400;45.926;6.724;2023-02-28T10:29:32;38.75;36.50;21.00
57563;PMS7003;43400;45.926;6.724;2023-02-28T10:32:04;47.25;41.00;23.75
57563;PMS7003;43400;45.926;6.724;2023-02-28T10:34:35;47.20;42.20;23.80
57563;PMS7003;43400;45.926;6.724;2023-02-28T10:37:07;43.50;40.75;26.00
57563;PMS7003;43400;45.926;6.724;2023-02-28T10:39:41;46.00;42.25;25.50
57563;PMS7003;43400;45.926;6.724;2023-02-28T10:42:21;41.00;38.50;26.00
57563;PMS7003;43400;45.926;6.724;2023-02-28T10:47:54;41.50;38.00;24.50
57563;PMS7003;43400;45.926;6.724;2023-02-28T11:09:35;43.25;37.25;23.00
57563;PMS7003;43400;45.926;6.724;2023-02-28T11:14:59;39.50;35.50;24.00
57563;PMS7003;43400;45.926;6.724;2023-02-28T11:17:33;36.00;33.50;23.00
57563;PMS7003;43400;45.926;6.724;2023-02-28T11:20:05;39.00;35.40;22.60
57563;PMS7003;43400;45.926;6.724;2023-02-28T11:22:45;37.80;35.00;23.40
57563;PMS7003;43400;45.926;6.724;2023-02-28T11:27:58;33.25;31.50;21.00
57563;PMS7003;43400;45.926;6.724;2023-02-28T11:30:38;37.60;33.60;22.40
57563;PMS7003;43400;45.926;6.724;2023-02-28T11:33:21;35.40;33.20;23.00
57563;PMS7003;43400;45.926;6.724;2023-02-28T11:36:13;38.00;33.75;23.00
57563;PMS7003;43400;45.926;6.724;2023-02-28T11:38:47;35.00;34.00;22.00
57563;PMS7003;43400;45.926;6.724;2023-02-28T11:46:58;39.40;35.80;23.00
57563;PMS7003;43400;45.926;6.724;2023-02-28T11:55:48;35.20;33.40;23.00
57563;PMS7003;43400;45.926;6.724;2023-02-28T12:03:51;41.50;36.50;23.50
57563;PMS7003;43400;45.926;6.724;2023-02-28T12:06:43;35.75;34.00;23.00
57563;PMS7003;43400;45.926;6.724;2023-02-28T12:09:42;40.25;36.25;24.00
57563;PMS7003;43400;45.926;6.724;2023-02-28T12:26:45;42.25;38.00;24.50
57563;PMS7003;43400;45.926;6.724;2023-02-28T12:29:25;39.25;36.00;24.00
57563;PMS7003;43400;45.926;6.724;2023-02-28T12:32:15;44.50;38.50;25.00
57563;PMS7003;43400;45.926;6.724;2023-02-28T12:34:55;42.75;38.50;24.00
57563;PMS7003;43400;45.926;6.724;2023-02-28T12:37:55;41.25;38.00;24.25
57563;PMS7003;43400;45.926;6.724;2023-02-28T12:40:48;38.20;36.40;24.80
57563;PMS7003;43400;45.926;6.724;2023-02-28T12:43:36;44.60;39.20;24.20
57563;PMS7003;43400;45.926;6.724;2023-02-28T12:46:17;43.80;38.20;24.00
57563;PMS7003;43400;45.926;6.724;2023-02-28T12:49:24;44.40;37.40;25.00
57563;PMS7003;43400;45.926;6.724;2023-02-28T12:51:57;38.50;36.00;24.00
57563;PMS7003;43400;45.926;6.724;2023-02-28T12:54:37;44.75;39.00;24.00
57563;PMS7003;43400;45.926;6.724;2023-02-28T13:05:56;33.40;31.60;21.60
57563;PMS7003;43400;45.926;6.724;2023-02-28T13:11:46;46.50;38.00;24.00
57563;PMS7003;43400;45.926;6.724;2023-02-28T13:17:01;39.50;35.50;23.00
57563;PMS7003;43400;45.926;6.724;2023-02-28T13:19:46;38.80;35.60;23.00
57563;PMS7003;43400;45.926;6.724;2023-02-28T13:27:55;40.50;38.00;22.00
57563;PMS7003;43400;45.926;6.724;2023-02-28T13:33:27;33.75;33.50;22.00
57563;PMS7003;43400;45.926;6.724;2023-02-28T13:38:56;34.00;31.80;21.40
57563;PMS7003;43400;45.926;6.724;2023-02-28T13:44:04;40.75;38.00;23.00
57563;PMS7003;43400;45.926;6.724;2023-02-28T13:49:25;41.50;36.00;23.00
57563;PMS7003;43400;45.926;6.724;2023-02-28T13:52:08;39.40;35.20;24.40
57563;PMS7003;43400;45.926;6.724;2023-02-28T13:54:56;32.25;31.50;21.00
57563;PMS7003;43400;45.926;6.724;2023-02-28T14:06:46;65.00;53.75;32.50
57563;PMS7003;43400;45.926;6.724;2023-02-28T14:09:40;36.75;33.75;24.00
57563;PMS7003;43400;45.926;6.724;2023-02-28T14:15:39;37.00;36.00;24.00
57563;PMS7003;43400;45.926;6.724;2023-02-28T14:20:57;41.50;37.25;23.50
57563;PMS7003;43400;45.926;6.724;2023-02-28T14:35:50;38.00;35.00;23.00
57563;PMS7003;43400;45.926;6.724;2023-02-28T14:38:59;33.20;31.60;21.80
57563;PMS7003;43400;45.926;6.724;2023-02-28T14:41:36;32.75;32.25;24.00
57563;PMS7003;43400;45.926;6.724;2023-02-28T14:44:27;35.75;34.00;23.00
57563;PMS7003;43400;45.926;6.724;2023-02-28T14:47:00;35.00;33.25;21.00
57563;PMS7003;43400;45.926;6.724;2023-02-28T14:49:37;41.50;37.75;24.50
57563;PMS7003;43400;45.926;6.724;2023-02-28T14:52:15;37.20;34.60;22.00
57563;PMS7003;43400;45.926;6.724;2023-02-28T14:54:52;32.50;32.50;23.50
57563;PMS7003;43400;45.926;6.724;2023-02-28T14:57:52;36.50;34.50;23.00
57563;PMS7003;43400;45.926;6.724;2023-02-28T15:00:33;39.33;35.00;24.00
57563;PMS7003;43400;45.926;6.724;2023-02-28T15:05:53;44.75;39.75;26.50
57563;PMS7003;43400;45.926;6.724;2023-02-28T15:08:27;36.20;34.00;24.00
57563;PMS7003;43400;45.926;6.724;2023-02-28T15:11:00;39.75;37.00;24.00
57563;PMS7003;43400;45.926;6.724;2023-02-28T15:13:37;36.20;34.60;22.60
57563;PMS7003;43400;45.926;6.724;2023-02-28T15:16:16;42.75;38.75;26.50
57563;PMS7003;43400;45.926;6.724;2023-02-28T15:19:34;35.80;35.00;23.40
57563;PMS7003;43400;45.926;6.724;2023-02-28T15:21:55;40.25;37.00;24.00
57563;PMS7003;43400;45.926;6.724;2023-02-28T15:24:38;39.00;37.00;23.20
57563;PMS7003;43400;45.926;6.724;2023-02-28T15:27:16;42.80;38.80;24.80
57563;PMS7003;43400;45.926;6.724;2023-02-28T15:29:53;39.40;37.40;24.00
57563;PMS7003;43400;45.926;6.724;2023-02-28T15:32:29;44.33;38.00;24.67
57563;PMS7003;43400;45.926;6.724;2023-02-28T15:35:19;43.00;39.00;24.00
57563;PMS7003;43400;45.926;6.724;2023-02-28T15:38:01;43.50;39.00;26.00
57563;PMS7003;43400;45.926;6.724;2023-02-28T15:40:46;41.20;38.40;25.20
57563;PMS7003;43400;45.926;6.724;2023-02-28T15:46:07;45.20;38.80;26.80
57563;PMS7003;43400;45.926;6.724;2023-02-28T15:48:51;41.20;40.00;25.00
57563;PMS7003;43400;45.926;6.724;2023-02-28T15:51:26;43.40;40.20;25.00
57563;PMS7003;43400;45.926;6.724;2023-02-28T15:54:06;38.00;35.50;23.00
57563;PMS7003;43400;45.926;6.724;2023-02-28T15:56:43;40.50;37.00;25.75
57563;PMS7003;43400;45.926;6.724;2023-02-28T15:59:21;39.00;37.00;23.00
57563;PMS7003;43400;45.926;6.724;2023-02-28T16:04:54;38.50;36.00;26.00
57563;PMS7003;43400;45.926;6.724;2023-02-28T16:07:31;38.80;37.40;25.00
57563;PMS7003;43400;45.926;6.724;2023-02-28T16:10:04;34.80;34.80;23.20
57563;PMS7003;43400;45.926;6.724;2023-02-28T16:12:38;41.50;39.00;25.00
57563;PMS7003;43400;45.926;6.724;2023-02-28T16:15:20;46.00;40.00;25.00
57563;PMS7003;43400;45.926;6.724;2023-02-28T16:17:54;42.80;39.00;25.00
57563;PMS7003;43400;45.926;6.724;2023-02-28T16:20:29;44.00;37.80;23.80
57563;PMS7003;43400;45.926;6.724;2023-02-28T16:23:01;43.40;38.60;25.00
57563;PMS7003;43400;45.926;6.724;2023-02-28T16:25:36;47.00;39.60;24.60
57563;PMS7003;43400;45.926;6.724;2023-02-28T16:28:29;42.00;39.40;25.00
57563;PMS7003;43400;45.926;6.724;2023-02-28T16:31:05;47.40;42.00;29.00
57563;PMS7003;43400;45.926;6.724;2023-02-28T16:33:39;54.00;45.60;28.60
57563;PMS7003;43400;45.926;6.724;2023-02-28T16:36:17;49.50;44.25;27.75
57563;PMS7003;43400;45.926;6.724;2023-02-28T16:38:53;49.00;43.50;28.25
57563;PMS7003;43400;45.926;6.724;2023-02-28T16:41:26;42.20;38.20;27.00
57563;PMS7003;43400;45.926;6.724;2023-02-28T16:43:59;42.50;40.50;26.25
57563;PMS7003;43400;45.926;6.724;2023-02-28T16:46:33;53.75;45.50;27.75
57563;PMS7003;43400;45.926;6.724;2023-02-28T16:49:09;41.00;38.50;25.50
57563;PMS7003;43400;45.926;6.724;2023-02-28T16:51:42;40.25;36.25;25.00
57563;PMS7003;43400;45.926;6.724;2023-02-28T16:54:14;38.00;37.00;24.00
57563;PMS7003;43400;45.926;6.724;2023-02-28T16:56:46;44.00;39.50;26.50
57563;PMS7003;43400;45.926;6.724;2023-02-28T16:59:22;47.00;42.25;26.25
57563;PMS7003;43400;45.926;6.724;2023-02-28T17:01:55;61.50;48.75;29.00
57563;PMS7003;43400;45.926;6.724;2023-02-28T17:04:27;45.25;42.00;26.00
57563;PMS7003;43400;45.926;6.724;2023-02-28T17:06:58;43.80;40.40;26.00
57563;PMS7003;43400;45.926;6.724;2023-02-28T17:09:30;50.75;43.00;28.00
57563;PMS7003;43400;45.926;6.724;2023-02-28T17:12:02;47.25;42.00;27.25
57563;PMS7003;43400;45.926;6.724;2023-02-28T17:14:33;43.00;40.25;27.25
57563;PMS7003;43400;45.926;6.724;2023-02-28T17:17:06;40.60;38.20;25.20
57563;PMS7003;43400;45.926;6.724;2023-02-28T17:19:38;51.25;43.25;27.25
57563;PMS7003;43400;45.926;6.724;2023-02-28T17:22:10;45.00;40.50;26.00
57563;PMS7003;43400;45.926;6.724;2023-02-28T17:24:41;46.40;41.40;27.00
57563;PMS7003;43400;45.926;6.724;2023-02-28T17:27:13;48.60;42.60;27.60
57563;PMS7003;43400;45.926;6.724;2023-02-28T17:29:45;47.00;42.00;27.00